Toguchin, Russia
Current Conditions -  °F | °C
As of 3:30 AM on Sunday 21 Dec 2014 (Local Time) from UNNT Reporting Station
Clear Clear  
Wind Chill: -11°   Ceiling: Unl
Heat Index:   Visibility: 6mi
Dew Point: -4°   Wind: 7mph
Humidity: 78%   Direction: 160°SSE
Pressure: 30.24"   Gusts: NA
Location:  55.24°N, 84.39°E
Report Text: UNNT 202030Z 16003MPS CAVOK M17/M20 Q1024 25810160 16810160NOSIG RMK QFE758/1011
Loading
Personal Weather Stations






























Interactive Weather Map New forecast layout! Learn more

10-Day Weather Forecast

Advertisements
Track Severe Weather on mobile